Time;durP1;ratioP1;P1;durP2;ratioP2;P2;SDS_P1;SDS_P2;PMS_P1;PMS_P2;Temp;Humidity;BMP_temperature;BMP_pressure;BME280_temperature;BME280_humidity;BME280_pressure;Samples;Min_cycle;Max_cycle;Signal;HPM_P1;HPM_P2
2022/01/31 00:04:19;;;;;;;0.00;0.00;;;;;;;2.34;100.00;101396.72;10326501;28;20461;-70
2022/01/31 00:09:22;;;;;;;0.00;0.00;;;;;;;2.31;100.00;101380.28;10325799;28;20026;-70
2022/01/31 00:15:01;;;;;;;0.00;0.00;;;;;;;2.28;100.00;101360.28;10285785;28;1191151;-70
2022/01/31 00:19:48;;;;;;;0.00;0.00;;;;;;;2.25;100.00;101335.03;10324864;28;20038;-71
2022/01/31 00:24:49;;;;;;;0.00;0.00;;;;;;;2.24;100.00;101325.44;10325919;28;20022;-70
2022/01/31 00:29:49;;;;;;;0.00;0.00;;;;;;;2.22;100.00;101297.56;10326973;28;20018;-71
2022/01/31 00:34:50;;;;;;;0.00;0.00;;;;;;;2.22;100.00;101285.28;10326221;28;20371;-70
2022/01/31 00:39:51;;;;;;;0.00;0.00;;;;;;;2.20;100.00;101260.00;10326579;28;20069;-70
2022/01/31 00:44:58;;;;;;;0.00;0.00;;;;;;;2.17;100.00;101242.66;10326765;28;20018;-70
2022/01/31 00:50:09;;;;;;;0.00;0.00;;;;;;;2.15;100.00;101227.91;10326730;28;20130;-71
2022/01/31 00:55:12;;;;;;;0.00;0.00;;;;;;;2.10;100.00;101209.81;10326483;28;20073;-70
2022/01/31 01:00:14;;;;;;;0.00;0.00;;;;;;;2.09;100.00;101187.09;10326481;28;20381;-70
2022/01/31 01:05:15;;;;;;;0.00;0.00;;;;;;;2.07;100.00;101178.47;10326285;28;20552;-69
2022/01/31 01:10:17;;;;;;;0.00;0.00;;;;;;;2.06;100.00;101147.03;10325584;28;20069;-70
2022/01/31 01:15:18;;;;;;;0.00;0.00;;;;;;;2.05;100.00;101112.03;10324867;28;20026;-70
2022/01/31 01:20:18;;;;;;;0.00;0.00;;;;;;;2.06;100.00;101086.59;10326201;28;20026;-71
2022/01/31 01:25:18;;;;;;;0.00;0.00;;;;;;;2.06;100.00;101073.44;10326320;28;20333;-71
2022/01/31 01:30:20;;;;;;;0.00;0.00;;;;;;;2.04;100.00;101052.53;10324986;28;20022;-70
2022/01/31 01:35:20;;;;;;;0.00;0.00;;;;;;;2.02;100.00;101050.00;10325920;28;20022;-70
2022/01/31 01:40:21;;;;;;;0.00;0.00;;;;;;;2.02;100.00;101038.66;10325484;28;20041;-70
2022/01/31 01:45:21;;;;;;;0.00;0.00;;;;;;;2.08;100.00;101021.66;10326744;28;20022;-69
2022/01/31 01:50:22;;;;;;;0.00;0.00;;;;;;;2.09;100.00;101016.28;10333139;28;20073;-70
2022/01/31 01:55:23;;;;;;;0.00;0.00;;;;;;;2.11;100.00;100996.00;10332877;28;20022;-70
2022/01/31 02:00:26;;;;;;;0.00;0.00;;;;;;;2.10;100.00;100960.19;10333106;28;20026;-70
2022/01/31 02:05:27;;;;;;;0.00;0.00;;;;;;;2.05;100.00;100946.50;10332722;28;20628;-69
2022/01/31 02:10:28;;;;;;;0.00;0.00;;;;;;;2.02;100.00;100917.78;10330752;28;20037;-70
2022/01/31 02:15:28;;;;;;;0.00;0.00;;;;;;;2.03;100.00;100922.09;10348255;22;20473;-70
2022/01/31 02:20:28;;;;;;;0.00;0.00;;;;;;;2.04;100.00;100915.91;10334056;28;20105;-71
2022/01/31 02:25:29;;;;;;;0.00;0.00;;;;;;;2.08;100.00;100922.63;10333833;28;20269;-71
2022/01/31 02:30:29;;;;;;;0.00;0.00;;;;;;;1.98;100.00;100906.66;10333852;28;20412;-70
2022/01/31 02:35:30;;;;;;;0.00;0.00;;;;;;;1.80;100.00;100882.44;10333410;28;20121;-70
2022/01/31 02:40:31;;;;;;;0.00;0.00;;;;;;;1.67;100.00;100876.31;10333467;28;20541;-70
2022/01/31 02:45:32;;;;;;;0.00;0.00;;;;;;;1.61;100.00;100855.72;10333244;28;20261;-71
2022/01/31 02:50:32;;;;;;;0.00;0.00;;;;;;;1.57;100.00;100826.19;10332932;28;20022;-70
2022/01/31 02:55:32;;;;;;;0.00;0.00;;;;;;;1.54;100.00;100820.28;10332637;28;20027;-70
2022/01/31 03:00:35;;;;;;;0.00;0.00;;;;;;;1.48;100.00;100791.81;10331961;28;20324;-70
2022/01/31 03:05:35;;;;;;;0.00;0.00;;;;;;;1.45;100.00;100763.16;10332258;28;20080;-70
2022/01/31 03:10:36;;;;;;;0.00;0.00;;;;;;;1.49;100.00;100741.84;10332397;28;20367;-70
2022/01/31 03:15:36;;;;;;;0.00;0.00;;;;;;;1.51;100.00;100720.72;10331693;28;20469;-70
2022/01/31 03:20:37;;;;;;;0.00;0.00;;;;;;;1.53;100.00;100706.56;10331782;28;20156;-70
2022/01/31 03:25:37;;;;;;;0.00;0.00;;;;;;;1.53;100.00;100689.97;10331682;28;20049;-70
2022/01/31 03:30:37;;;;;;;0.00;0.00;;;;;;;1.55;100.00;100661.84;10330594;28;20033;-70
2022/01/31 03:35:38;;;;;;;0.00;0.00;;;;;;;1.57;100.00;100644.19;10329636;28;20474;-70
2022/01/31 03:40:38;;;;;;;0.00;0.00;;;;;;;1.56;100.00;100619.72;10331002;28;20097;-70
2022/01/31 03:45:38;;;;;;;0.00;0.00;;;;;;;1.55;100.00;100598.84;10331307;28;20018;-71
2022/01/31 03:50:39;;;;;;;0.03;0.03;;;;;;;1.57;100.00;100581.19;10330751;28;20057;-70
2022/01/31 03:55:39;;;;;;;0.00;0.00;;;;;;;1.55;100.00;100556.84;10330384;28;20034;-70
2022/01/31 04:00:40;;;;;;;0.00;0.00;;;;;;;1.54;100.00;100550.75;10330326;28;20477;-70
2022/01/31 04:05:40;;;;;;;0.00;0.00;;;;;;;1.46;100.00;100528.63;10330461;28;20484;-69
2022/01/31 04:10:41;;;;;;;0.00;0.00;;;;;;;1.46;100.00;100515.50;10329275;28;20068;-69
2022/01/31 04:15:41;;;;;;;0.00;0.00;;;;;;;1.45;100.00;100504.13;10329548;28;20226;-69
2022/01/31 04:20:42;;;;;;;0.00;0.00;;;;;;;1.45;100.00;100490.19;10329591;28;20469;-69
2022/01/31 04:25:45;;;;;;;0.00;0.00;;;;;;;1.43;100.00;100468.47;10329567;28;20442;-70
2022/01/31 04:30:58;;;;;;;0.10;0.10;;;;;;;1.43;100.00;100445.69;10329254;28;20036;-68
2022/01/31 04:35:59;;;;;;;0.00;0.00;;;;;;;1.43;100.00;100432.56;10329046;28;20019;-70
2022/01/31 04:40:59;;;;;;;0.00;0.00;;;;;;;1.42;100.00;100411.66;10329201;28;20026;-70
2022/01/31 04:46:03;;;;;;;0.00;0.00;;;;;;;1.41;100.00;100396.88;10329575;28;20444;-70
2022/01/31 04:51:03;;;;;;;0.00;0.00;;;;;;;1.42;100.00;100381.00;10328813;28;20434;-69
2022/01/31 04:56:04;;;;;;;0.00;0.00;;;;;;;1.45;100.00;100377.31;10328754;28;20046;-70
2022/01/31 05:01:05;;;;;;;0.00;0.00;;;;;;;1.46;100.00;100374.59;10328685;28;20050;-70
2022/01/31 05:06:05;;;;;;;0.00;0.00;;;;;;;1.47;100.00;100359.69;10328543;28;20034;-70
2022/01/31 05:11:08;;;;;;;0.00;0.00;;;;;;;1.47;100.00;100349.19;10328539;28;20023;-67
2022/01/31 05:16:08;;;;;;;0.00;0.00;;;;;;;1.48;100.00;100345.59;10328127;28;20023;-69
2022/01/31 05:21:09;;;;;;;0.00;0.00;;;;;;;1.50;100.00;100341.09;10329929;28;20031;-70
2022/01/31 05:26:09;;;;;;;0.00;0.00;;;;;;;1.45;100.00;100309.09;10335865;28;20022;-70
2022/01/31 05:31:09;;;;;;;0.00;0.00;;;;;;;1.46;100.00;100316.03;10335905;28;20357;-69
2022/01/31 05:36:10;;;;;;;0.00;0.00;;;;;;;1.42;100.00;100310.13;10335599;28;20030;-70
2022/01/31 05:41:17;;;;;;;0.00;0.00;;;;;;;1.36;100.00;100290.44;10335557;28;20122;-70
2022/01/31 05:46:18;;;;;;;0.00;0.00;;;;;;;1.31;100.00;100291.75;10335053;28;20057;-68
2022/01/31 05:51:23;;;;;;;0.00;0.00;;;;;;;1.23;100.00;100279.19;10335057;28;20037;-70
2022/01/31 05:56:23;;;;;;;0.00;0.00;;;;;;;1.18;100.00;100283.91;10334831;28;20282;-70
2022/01/31 06:01:23;;;;;;;0.00;0.00;;;;;;;1.12;100.00;100266.00;10334658;28;20030;-71
2022/01/31 06:06:24;;;;;;;0.00;0.00;;;;;;;1.08;100.00;100248.84;10334426;28;20280;-70
2022/01/31 06:11:25;;;;;;;0.00;0.00;;;;;;;1.03;100.00;100248.34;10334366;28;20272;-71
2022/01/31 06:16:27;;;;;;;0.00;0.00;;;;;;;1.02;100.00;100244.00;10334069;28;20060;-69
2022/01/31 06:21:27;;;;;;;0.00;0.00;;;;;;;1.00;100.00;100245.94;10334861;28;20034;-70
2022/01/31 06:26:29;;;;;;;0.00;0.00;;;;;;;0.96;100.00;100244.47;10333825;28;20026;-71
2022/01/31 06:31:30;;;;;;;0.00;0.00;;;;;;;0.88;100.00;100232.75;10333265;28;20276;-70
2022/01/31 06:36:31;;;;;;;0.10;0.10;;;;;;;0.80;100.00;100222.00;10331634;28;20076;-71
2022/01/31 06:41:31;;;;;;;0.10;0.10;;;;;;;0.76;100.00;100212.69;10332331;28;20081;-71
2022/01/31 06:46:31;;;;;;;0.00;0.00;;;;;;;0.71;100.00;100206.94;10333097;28;20018;-71
2022/01/31 06:51:32;;;;;;;0.00;0.00;;;;;;;0.68;100.00;100212.41;10332999;28;20356;-70
2022/01/31 06:56:35;;;;;;;0.10;0.10;;;;;;;0.69;100.00;100216.69;10332648;28;20284;-70
2022/01/31 07:01:36;;;;;;;0.00;0.00;;;;;;;0.69;100.00;100206.19;10332573;28;20037;-70
2022/01/31 07:06:36;;;;;;;0.00;0.00;;;;;;;0.69;100.00;100211.44;10332401;28;20022;-70
2022/01/31 07:11:40;;;;;;;0.00;0.00;;;;;;;0.68;100.00;100204.53;10331980;28;20701;-70
2022/01/31 07:16:42;;;;;;;0.00;0.00;;;;;;;0.65;100.00;100195.09;10331593;28;20023;-69
2022/01/31 07:21:48;;;;;;;0.00;0.00;;;;;;;0.65;100.00;100187.25;10332289;28;20030;-70
2022/01/31 07:26:50;;;;;;;0.00;0.00;;;;;;;0.65;100.00;100179.38;10331345;28;20022;-70
2022/01/31 07:31:51;;;;;;;0.00;0.00;;;;;;;0.64;100.00;100169.84;10331392;28;20474;-70
2022/01/31 07:36:52;;;;;;;0.10;0.10;;;;;;;0.67;100.00;100184.53;10331045;28;20381;-70
2022/01/31 07:41:53;;;;;;;0.03;0.03;;;;;;;0.70;100.00;100176.44;10331407;28;20022;-68
2022/01/31 07:46:53;;;;;;;0.00;0.00;;;;;;;0.73;100.00;100164.88;10330552;28;20560;-68
2022/01/31 07:51:56;;;;;;;0.03;0.03;;;;;;;0.77;100.00;100164.53;10330417;28;20026;-69
2022/01/31 07:56:57;;;;;;;0.00;0.00;;;;;;;0.81;100.00;100163.34;10330505;28;20030;-69
2022/01/31 08:01:57;;;;;;;0.00;0.00;;;;;;;0.85;100.00;100170.06;10330228;28;20034;-70
2022/01/31 08:06:57;;;;;;;0.00;0.00;;;;;;;0.90;100.00;100172.31;10330112;28;20454;-71
2022/01/31 08:11:58;;;;;;;0.00;0.00;;;;;;;0.96;100.00;100184.16;10323629;28;20030;-69
2022/01/31 08:16:58;;;;;;;0.00;0.00;;;;;;;0.97;100.00;100183.22;10337980;23;20595;-68
2022/01/31 08:21:59;;;;;;;0.00;0.00;;;;;;;1.03;100.00;100188.00;10350335;28;20480;-68
2022/01/31 08:26:59;;;;;;;0.00;0.00;;;;;;;1.06;100.00;100172.03;10349152;28;20257;-68
2022/01/31 08:32:05;;;;;;;0.00;0.00;;;;;;;1.11;100.00;100176.00;10341753;28;20026;-68
2022/01/31 08:37:05;;;;;;;0.00;0.00;;;;;;;1.17;100.00;100182.56;10336779;28;20472;-68
2022/01/31 08:42:06;;;;;;;0.00;0.00;;;;;;;1.20;100.00;100184.97;10349134;28;20516;-68
2022/01/31 08:47:07;;;;;;;0.00;0.00;;;;;;;1.21;100.00;100178.75;10340520;28;20025;-68
2022/01/31 08:52:07;;;;;;;0.00;0.00;;;;;;;1.22;100.00;100193.56;10338400;28;20026;-68
2022/01/31 08:57:08;;;;;;;0.00;0.00;;;;;;;1.23;100.00;100189.16;10346114;28;20644;-68
2022/01/31 09:02:13;;;;;;;0.00;0.00;;;;;;;1.24;100.00;100175.06;10352091;28;20025;-68
2022/01/31 09:07:20;;;;;;;0.10;0.10;;;;;;;1.25;100.00;100185.47;10349606;28;20020;-68
2022/01/31 09:12:23;;;;;;;0.00;0.00;;;;;;;1.24;100.00;100180.31;10354215;28;20045;-68
2022/01/31 09:17:23;;;;;;;0.00;0.00;;;;;;;1.27;100.00;100178.28;10348342;28;20030;-68
2022/01/31 09:22:24;;;;;;;0.00;0.00;;;;;;;1.25;100.00;100185.47;10347417;28;20022;-68
2022/01/31 09:27:24;;;;;;;0.00;0.00;;;;;;;1.27;100.00;100198.44;10336777;28;20037;-68
2022/01/31 09:32:24;;;;;;;0.00;0.00;;;;;;;1.29;100.00;100201.81;10331740;28;22159;-68
2022/01/31 09:37:25;;;;;;;0.00;0.00;;;;;;;1.34;100.00;100202.31;10342448;28;20037;-68
2022/01/31 09:42:35;;;;;;;0.00;0.00;;;;;;;1.38;100.00;100216.84;10360575;28;20459;-68
2022/01/31 09:52:35;;;;;;;0.00;0.00;;;;;;;1.62;100.00;100223.84;10343745;28;20018;-68
2022/01/31 09:57:36;;;;;;;0.00;0.00;;;;;;;1.71;100.00;100216.06;10353930;28;20029;-68
2022/01/31 10:02:36;;;;;;;0.00;0.00;;;;;;;1.79;100.00;100223.38;10353777;28;20340;-68
2022/01/31 10:07:47;;;;;;;0.00;0.00;;;;;;;1.78;100.00;100229.59;10340576;28;20261;-68
2022/01/31 10:18:02;;;;;;;0.00;0.00;;;;;;;1.83;100.00;100242.34;10357810;28;20029;-68
2022/01/31 10:23:09;;;;;;;0.00;0.00;;;;;;;1.87;100.00;100243.81;10334196;28;20022;-68
2022/01/31 10:28:12;;;;;;;0.00;0.00;;;;;;;1.93;100.00;100259.94;10352841;28;20109;-68
2022/01/31 10:33:14;;;;;;;0.00;0.00;;;;;;;1.95;100.00;100268.53;10354055;28;20030;-68
2022/01/31 10:38:19;;;;;;;0.00;0.00;;;;;;;2.02;100.00;100276.78;10341723;28;20567;-68
2022/01/31 10:59:31;;;;;;;0.00;0.00;;;;;;;2.18;100.00;100293.03;10344523;28;20052;-68
2022/01/31 11:04:36;;;;;;;0.00;0.00;;;;;;;2.20;100.00;100301.63;10335350;28;20444;-68
2022/01/31 11:09:37;;;;;;;0.00;0.00;;;;;;;2.26;100.00;100303.78;10341378;28;20025;-69
2022/01/31 11:14:41;;;;;;;0.00;0.00;;;;;;;2.28;100.00;100323.88;10342559;28;20038;-68
2022/01/31 11:19:43;;;;;;;0.00;0.00;;;;;;;2.23;100.00;100326.84;10329907;28;20033;-68
2022/01/31 11:24:48;;;;;;;0.00;0.00;;;;;;;2.22;100.00;100323.38;10322116;28;20062;-68
2022/01/31 11:29:56;;;;;;;0.00;0.00;;;;;;;2.20;100.00;100332.31;10323871;28;20056;-68
2022/01/31 11:34:57;;;;;;;0.00;0.00;;;;;;;2.21;100.00;100349.75;10329248;28;20030;-68
2022/01/31 11:40:05;;;;;;;0.00;0.00;;;;;;;2.21;100.00;100358.50;10328897;28;20393;-68
2022/01/31 11:45:28;;;;;;;0.00;0.00;;;;;;;2.25;100.00;100367.81;10327651;28;20482;-68
2022/01/31 11:50:29;;;;;;;0.00;0.00;;;;;;;2.29;100.00;100372.84;10319443;28;20057;-68
2022/01/31 11:55:34;;;;;;;0.00;0.00;;;;;;;2.32;100.00;100369.97;10329002;28;20030;-68
2022/01/31 12:00:38;;;;;;;0.00;0.00;;;;;;;2.36;100.00;100384.56;10325601;28;20030;-68
2022/01/31 12:05:40;;;;;;;0.00;0.00;;;;;;;2.35;100.00;100385.50;10339346;28;20072;-67
2022/01/31 12:10:46;;;;;;;0.00;0.00;;;;;;;2.36;100.00;100389.81;10353226;28;20480;-67
2022/01/31 12:26:32;;;;;;;0.00;0.00;;;;;;;2.46;100.00;100419.69;10326102;28;20034;-67
2022/01/31 12:31:38;;;;;;;0.00;0.00;;;;;;;2.42;100.00;100441.94;10325982;28;20030;-67
2022/01/31 12:36:39;;;;;;;0.00;0.00;;;;;;;2.42;100.00;100452.44;10325092;28;20030;-67
2022/01/31 12:41:39;;;;;;;0.00;0.00;;;;;;;2.46;100.00;100461.75;10338260;28;20034;-67
2022/01/31 12:46:48;;;;;;;0.00;0.00;;;;;;;2.51;100.00;100459.63;10327422;28;20424;-67
2022/01/31 12:51:59;;;;;;;0.00;0.00;;;;;;;2.59;100.00;100470.41;10341723;28;21455;-67
2022/01/31 12:57:10;;;;;;;0.00;0.00;;;;;;;2.63;100.00;100487.63;10357648;28;20033;-67
2022/01/31 13:02:10;;;;;;;0.00;0.00;;;;;;;2.69;100.00;100502.94;10333297;28;20030;-67
2022/01/31 13:07:12;;;;;;;0.00;0.00;;;;;;;2.74;100.00;100509.66;10328327;28;20548;-67
2022/01/31 13:12:16;;;;;;;0.00;0.00;;;;;;;2.75;100.00;100516.56;10347939;28;20033;-67
2022/01/31 13:17:25;;;;;;;0.00;0.00;;;;;;;2.67;100.00;100533.75;10354666;28;20030;-67
2022/01/31 13:22:39;;;;;;;0.00;0.00;;;;;;;2.64;100.00;100528.72;10349571;28;20053;-67
2022/01/31 13:27:42;;;;;;;0.00;0.00;;;;;;;2.65;100.00;100538.31;10359234;28;20025;-66
2022/01/31 13:32:43;;;;;;;0.00;0.00;;;;;;;2.62;100.00;100554.31;10355704;28;20081;-67
2022/01/31 13:37:53;;;;;;;0.00;0.00;;;;;;;2.64;100.00;100560.28;10342026;28;20037;-66
2022/01/31 13:43:04;;;;;;;0.00;0.00;;;;;;;2.63;100.00;100560.41;10341435;28;20386;-68
2022/01/31 13:48:12;;;;;;;0.00;0.00;;;;;;;2.60;100.00;100576.41;10344154;28;20131;-68
2022/01/31 13:53:18;;;;;;;0.00;0.00;;;;;;;2.56;100.00;100575.81;10333879;28;20034;-68
2022/01/31 13:58:24;;;;;;;0.00;0.00;;;;;;;2.55;100.00;100589.06;10345865;28;20026;-68
2022/01/31 14:03:26;;;;;;;0.00;0.00;;;;;;;2.57;100.00;100587.16;10350684;28;20084;-68
2022/01/31 14:08:39;;;;;;;0.00;0.00;;;;;;;2.56;100.00;100590.72;10363185;28;20050;-68
2022/01/31 14:18:58;;;;;;;0.05;0.05;;;;;;;2.51;100.00;100635.78;10332992;28;20521;-71
2022/01/31 14:24:01;;;;;;;0.00;0.00;;;;;;;2.47;100.00;100644.81;10333837;28;20030;-70
2022/01/31 14:29:03;;;;;;;0.00;0.00;;;;;;;2.46;100.00;100653.66;10332712;28;20022;-71
2022/01/31 14:34:10;;;;;;;0.00;0.00;;;;;;;2.45;100.00;100665.16;10332151;28;20027;-71
2022/01/31 14:49:34;;;;;;;0.00;0.00;;;;;;;2.44;100.00;100701.13;10332860;28;20022;-71
2022/01/31 14:54:36;;;;;;;0.00;0.00;;;;;;;2.45;100.00;100715.09;10331903;28;20393;-71
2022/01/31 14:59:36;;;;;;;0.00;0.00;;;;;;;2.37;100.00;100734.03;10331164;28;20117;-71
2022/01/31 15:04:38;;;;;;;0.00;0.00;;;;;;;2.33;100.00;100742.22;10332268;28;20026;-71
2022/01/31 15:09:38;;;;;;;0.00;0.00;;;;;;;2.29;100.00;100756.56;10332201;28;20482;-71
2022/01/31 15:14:39;;;;;;;0.00;0.00;;;;;;;2.26;100.00;100774.22;10338274;28;20025;-72
2022/01/31 15:19:40;;;;;;;0.00;0.00;;;;;;;2.24;100.00;100781.38;10372257;28;20030;-71
2022/01/31 15:24:41;;;;;;;0.00;0.00;;;;;;;2.22;100.00;100804.28;10336906;28;20033;-71
2022/01/31 15:29:41;;;;;;;0.00;0.00;;;;;;;2.19;100.00;100819.44;10331847;28;20030;-71
2022/01/31 15:34:41;;;;;;;0.00;0.00;;;;;;;2.18;100.00;100831.75;10330823;28;20025;-71
2022/01/31 15:39:42;;;;;;;0.00;0.00;;;;;;;2.20;100.00;100853.47;10330944;28;20457;-71
2022/01/31 15:44:53;;;;;;;0.00;0.00;;;;;;;2.18;100.00;100865.03;10330780;28;20032;-71
2022/01/31 15:49:54;;;;;;;0.00;0.00;;;;;;;2.10;100.00;100873.47;10330608;28;20034;-71
2022/01/31 15:54:54;;;;;;;0.00;0.00;;;;;;;2.00;100.00;100896.03;10330112;28;20034;-71
2022/01/31 15:59:55;;;;;;;0.00;0.00;;;;;;;1.98;100.00;100906.66;10330309;28;20033;-71
2022/01/31 16:04:55;;;;;;;0.00;0.00;;;;;;;1.92;100.00;100928.06;10329713;28;20026;-71
2022/01/31 16:09:55;;;;;;;0.00;0.00;;;;;;;1.90;100.00;100918.63;10328512;28;20488;-70
2022/01/31 16:14:56;;;;;;;0.00;0.00;;;;;;;1.89;100.00;100927.41;10329551;28;20488;-70
2022/01/31 16:19:56;;;;;;;0.00;0.00;;;;;;;1.86;100.00;100925.81;10329795;28;20046;-70
2022/01/31 16:24:56;;;;;;;0.00;0.00;;;;;;;1.83;100.00;100947.03;10329358;28;20022;-71
2022/01/31 16:29:58;;;;;;;0.00;0.00;;;;;;;1.82;100.00;100953.25;10329334;28;20022;-70
2022/01/31 16:34:59;;;;;;;0.00;0.00;;;;;;;1.82;100.00;100971.63;10327619;28;20288;-69
2022/01/31 16:40:01;;;;;;;0.00;0.00;;;;;;;1.83;100.00;100985.59;10329148;28;20369;-72
2022/01/31 16:45:04;;;;;;;0.00;0.00;;;;;;;1.83;100.00;100973.31;10328614;28;20262;-70
2022/01/31 16:50:05;;;;;;;0.00;0.00;;;;;;;1.82;100.00;100971.63;10329021;28;20134;-70
2022/01/31 16:55:08;;;;;;;0.00;0.00;;;;;;;1.83;100.00;100975.09;10328468;28;20117;-70
2022/01/31 17:00:11;;;;;;;0.00;0.00;;;;;;;1.81;100.00;100978.69;10328444;28;20022;-70
2022/01/31 17:05:12;;;;;;;0.00;0.00;;;;;;;1.83;100.00;100975.94;10328535;28;20018;-69
2022/01/31 17:10:14;;;;;;;0.00;0.00;;;;;;;1.81;100.00;100975.22;10328567;28;20480;-71
2022/01/31 17:15:15;;;;;;;0.00;0.00;;;;;;;1.77;100.00;101005.22;10327894;28;20477;-69
2022/01/31 17:20:17;;;;;;;0.00;0.00;;;;;;;1.78;100.00;101030.56;10335684;28;20030;-70
2022/01/31 17:25:18;;;;;;;0.00;0.00;;;;;;;1.75;100.00;101033.38;10334789;28;20112;-69
2022/01/31 17:30:19;;;;;;;0.00;0.00;;;;;;;1.71;100.00;101056.34;10336085;28;20139;-70
2022/01/31 17:35:19;;;;;;;0.00;0.00;;;;;;;1.72;100.00;101055.44;10335585;28;20449;-71
2022/01/31 17:40:20;;;;;;;0.00;0.00;;;;;;;1.78;100.00;101080.47;10335741;28;20030;-70
2022/01/31 17:45:22;;;;;;;0.00;0.00;;;;;;;1.84;100.00;101102.88;10313257;28;20019;-69
2022/01/31 17:50:22;;;;;;;0.00;0.00;;;;;;;1.92;100.00;101126.88;10323714;28;20545;-68
2022/01/31 17:55:23;;;;;;;0.00;0.00;;;;;;;1.98;100.00;101135.22;10312488;28;20026;-69
2022/01/31 18:00:24;;;;;;;0.00;0.00;;;;;;;2.03;100.00;101151.53;10320101;28;20027;-68
2022/01/31 18:05:25;;;;;;;0.00;0.00;;;;;;;2.08;100.00;101148.63;10325232;28;20054;-69
2022/01/31 18:10:26;;;;;;;0.00;0.00;;;;;;;2.10;100.00;101152.00;10319199;28;20050;-70
2022/01/31 18:15:26;;;;;;;0.00;0.00;;;;;;;2.15;100.00;101165.72;10316300;28;20084;-69
2022/01/31 18:20:27;;;;;;;0.10;0.10;;;;;;;2.15;100.00;101164.84;10306630;28;20301;-69
2022/01/31 18:25:27;;;;;;;0.00;0.00;;;;;;;2.14;100.00;101178.94;10336021;28;20029;-69
2022/01/31 18:30:28;;;;;;;0.00;0.00;;;;;;;2.13;100.00;101172.00;10311554;28;20046;-69
2022/01/31 18:35:28;;;;;;;0.10;0.10;;;;;;;2.11;100.00;101174.69;10334331;28;20022;-69
2022/01/31 18:40:29;;;;;;;0.10;0.10;;;;;;;2.12;100.00;101183.44;10324327;28;20034;-69
2022/01/31 18:45:31;;;;;;;0.00;0.00;;;;;;;2.11;100.00;101185.22;10323033;28;20478;-69
2022/01/31 18:50:39;;;;;;;0.00;0.00;;;;;;;2.10;100.00;101186.16;10317690;28;20153;-69
2022/01/31 18:55:41;;;;;;;0.00;0.00;;;;;;;2.10;100.00;101209.81;10332931;28;20022;-68
2022/01/31 19:00:42;;;;;;;0.00;0.00;;;;;;;2.08;100.00;101230.06;10325234;28;20026;-68
2022/01/31 19:05:42;;;;;;;0.00;0.00;;;;;;;2.07;100.00;101230.19;10326920;28;20555;-68
2022/01/31 19:11:20;;;;;;;0.00;0.00;;;;;;;2.03;100.00;101235.59;10318791;28;20082;-69
2022/01/31 19:16:09;;;;;;;0.00;0.00;;;;;;;1.98;100.00;101253.47;10322964;28;20066;-69
2022/01/31 19:21:10;;;;;;;0.00;0.00;;;;;;;1.98;100.00;101279.72;10324249;28;20034;-69
2022/01/31 19:26:12;;;;;;;0.00;0.00;;;;;;;1.96;100.00;101291.25;10337370;28;20030;-69
2022/01/31 19:31:12;;;;;;;0.00;0.00;;;;;;;1.96;100.00;101300.00;10333167;28;20057;-69
2022/01/31 19:36:13;;;;;;;0.00;0.00;;;;;;;1.97;100.00;101298.19;10330525;28;20466;-69
2022/01/31 19:46:32;;;;;;;0.00;0.00;;;;;;;1.97;100.00;101320.06;10337265;28;20026;-69
2022/01/31 19:51:32;;;;;;;0.00;0.00;;;;;;;1.99;100.00;101328.69;10329500;28;20026;-69
2022/01/31 19:56:32;;;;;;;0.00;0.00;;;;;;;2.01;100.00;101320.75;10328833;28;20287;-69
2022/01/31 20:01:33;;;;;;;0.10;0.10;;;;;;;1.98;100.00;101342.78;10303939;28;20545;-69
2022/01/31 20:06:33;;;;;;;0.00;0.00;;;;;;;1.99;100.00;101351.50;10325162;28;20268;-69
2022/01/31 20:11:35;;;;;;;0.00;0.00;;;;;;;1.96;100.00;101334.13;10303749;28;20485;-69
2022/01/31 20:16:35;;;;;;;0.00;0.00;;;;;;;1.94;100.00;101317.63;10309706;28;20027;-69
2022/01/31 20:21:35;;;;;;;0.00;0.00;;;;;;;1.90;100.00;101324.00;10302784;28;20034;-69
2022/01/31 20:26:37;;;;;;;0.00;0.00;;;;;;;1.88;100.00;101327.66;10310840;28;20497;-69
2022/01/31 20:31:38;;;;;;;0.00;0.00;;;;;;;1.75;100.00;101315.25;10318701;28;20046;-68
2022/01/31 20:36:42;;;;;;;0.00;0.00;;;;;;;1.66;100.00;101321.03;10320017;28;20033;-69
2022/01/31 20:41:46;;;;;;;0.00;0.00;;;;;;;1.60;100.00;101331.91;10304017;28;20027;-68
2022/01/31 20:46:50;;;;;;;0.00;0.00;;;;;;;1.56;100.00;101336.47;10309304;28;20026;-69
2022/01/31 20:51:50;;;;;;;0.00;0.00;;;;;;;1.55;100.00;101354.97;10319409;28;20049;-69
2022/01/31 20:56:51;;;;;;;0.00;0.00;;;;;;;1.51;100.00;101361.28;10318436;28;20029;-68
2022/01/31 21:01:52;;;;;;;0.00;0.00;;;;;;;1.50;100.00;101372.75;10314363;28;20274;-69
2022/01/31 21:06:52;;;;;;;0.00;0.00;;;;;;;1.45;100.00;101364.28;10305567;28;20632;-69
2022/01/31 21:11:53;;;;;;;0.10;0.10;;;;;;;1.35;100.00;101370.06;10356073;22;20041;-67
2022/01/31 21:16:53;;;;;;;0.00;0.00;;;;;;;1.24;100.00;101364.56;10286315;28;20293;-67
2022/01/31 21:21:54;;;;;;;0.00;0.00;;;;;;;1.15;100.00;101377.34;10291648;28;20022;-67
2022/01/31 21:26:54;;;;;;;0.00;0.00;;;;;;;1.05;100.00;101371.78;10299236;28;20101;-67
2022/01/31 21:31:54;;;;;;;0.00;0.00;;;;;;;0.97;100.00;101360.84;10285547;28;20277;-67
2022/01/31 21:36:55;;;;;;;0.00;0.00;;;;;;;0.86;100.00;101364.06;10285526;28;20285;-68
2022/01/31 21:41:55;;;;;;;0.00;0.00;;;;;;;0.75;100.00;101364.63;10285313;28;20498;-68
2022/01/31 21:46:55;;;;;;;0.00;0.00;;;;;;;0.65;100.00;101360.81;10285287;28;20405;-68
2022/01/31 21:51:57;;;;;;;0.00;0.00;;;;;;;0.54;100.00;101368.41;10295362;28;20014;-67
2022/01/31 21:56:57;;;;;;;0.00;0.00;;;;;;;0.47;100.00;101372.25;10288152;28;20290;-67
2022/01/31 22:01:58;;;;;;;0.00;0.00;;;;;;;0.38;100.00;101358.75;10284882;28;20429;-67
2022/01/31 22:06:59;;;;;;;0.05;0.05;;;;;;;0.35;100.00;101358.91;10292551;28;20466;-67
2022/01/31 22:12:02;;;;;;;0.00;0.00;;;;;;;0.37;100.00;101357.03;10291337;28;20111;-67
2022/01/31 22:17:02;;;;;;;0.00;0.00;;;;;;;0.36;100.00;101360.59;10292129;28;20033;-67
2022/01/31 22:22:03;;;;;;;0.00;0.00;;;;;;;0.40;100.00;101358.66;10297751;28;20036;-67
2022/01/31 22:27:05;;;;;;;0.05;0.05;;;;;;;0.49;100.00;101362.56;10293757;28;20026;-67
2022/01/31 22:32:06;;;;;;;0.00;0.00;;;;;;;0.51;100.00;101350.22;10323117;28;20026;-67
2022/01/31 22:37:07;;;;;;;0.00;0.00;;;;;;;0.51;100.00;101350.22;10330779;28;20638;-67
2022/01/31 22:42:08;;;;;;;0.03;0.03;;;;;;;0.48;100.00;101335.50;10330856;28;20117;-67
2022/01/31 22:47:08;;;;;;;0.00;0.00;;;;;;;0.48;100.00;101337.28;10330847;28;20030;-67
2022/01/31 22:52:09;;;;;;;0.10;0.10;;;;;;;0.52;100.00;101329.16;10318904;28;20027;-67
2022/01/31 22:57:09;;;;;;;0.00;0.00;;;;;;;0.58;100.00;101322.75;10322412;28;20029;-67
2022/01/31 23:02:09;;;;;;;0.10;0.10;;;;;;;0.56;100.00;101322.00;10329578;28;20314;-67
2022/01/31 23:07:10;;;;;;;0.00;0.00;;;;;;;0.59;100.00;101321.81;10303466;28;20058;-67
2022/01/31 23:12:10;;;;;;;0.00;0.00;;;;;;;0.67;100.00;101325.72;10322839;28;20056;-67
2022/01/31 23:17:16;;;;;;;0.00;0.00;;;;;;;0.79;100.00;101337.31;10329137;28;20523;-67
2022/01/31 23:53:47;;;;;;;0.00;0.00;;;;;;;1.41;100.00;101374.09;10307330;28;20047;-67
